Aérodrome :
LOGIN :

S'inscrire | Disclaimer

   EN    FR    IT 

 










Légende :    VFR   VFR Marginal   IFR   IFR Intensif   IFR Très Intensif
Visi : 
Plafond : 
>= 8 km
>= 3000ft
5 à 8 km
1000 à 3000 ft
1500m à 5 km
500 à 1000 ft
800 à 1500m
200 à 500 ft
< 800m
< 200 ft
Symboles :   Orages  Brouillard  Fortes neiges  Fortes précipitations  Vent > 20 kt
SIGMETs :   Divers  Orages  Givrage  Turbulence  Onde Orograph.  Cendres Volcan.







- Altitude de l'aérodrome : 245 ft
- Code IATA : BIQ
- Voir les cartes d'approche


LFBZ - Biarritz

DERNIER METAR :
  • 181800Z AUTO 11004KT 090V150 9999 ///TCU 10/09 Q1009 BECMG NSC

METARs EXPIRÉS :
  • 181730Z AUTO 10005KT 9999 FEW062/// BKN074/// OVC110/// ///TCU 10/09 Q1008 BECMG NSC
  • 181700Z AUTO 09007KT 9999 FEW060/// BKN072/// OVC100/// ///TCU 10/10 Q1008 BECMG BKN070
  • 181630Z AUTO 09005KT 9999 -RA BKN068/// OVC088/// ///TCU 10/10 Q1008 BECMG BKN070
  • 181600Z AUTO 09006KT 9999 -RA BKN070/// BKN092/// OVC120/// ///TCU 11/10 Q1008 TEMPO SCT007 BKN040
  • 181530Z AUTO 09006KT 9999 -RA BKN068 OVC096 11/10 Q1008 NOSIG
  • 181500Z AUTO 09008KT 9999 -RA FEW060/// BKN070/// BKN098/// ///TCU 11/10 Q1008 TEMPO SCT007 BKN040

TAF TAF LFBZ
Valide du 18 à 18h jusqu'au 19 à 18h UTC


181700Z 1818/1918 09010KT 9999 -RA BKN070
BECMG 1819/1821 09005KT CAVOK
BECMG 1904/1906 3000 BR OVC002
TEMPO 1904/1909 0300 FG VV///
BECMG 1910/1912 CAVOK
Pas de NOTAMs connus pour ce terrain.
1 SIGMET publié pour la FIR Bordeaux (LFBB) :
 
Turbulence forte
LFBB SIGMET 3 VALID 181700/182100 LFPW
LFBB BORDEAUX FIR/UIR SEV TURB FCST WI N4715 W00015 - N4715 E00200 - N4630 E00300 - N4515 E00245 - N4545 W00015 - N4715 W00015 FL320/380 MOV SW 15KT NC=



MET'MAP, la Météo Aéronautique d'un coup d'oeil ! - Copyright ORBIFLY Décembre 2007 - Disclaimer

ORBIFLY MET'MAP TEAM :

Programmation & Développement : Alexandra Zaïnal
Conception & Développement : Baudouin d'Aumeries
Co-Programmation & Développement : Marc-Olivier Méhu
Soutien technique & logistique : Manuel Goepfert

Contact : metmap@orbifly.com




SOURCES & CREDITS :

   NOAA